logo
Rechercher aéroport 
image banner adimage banner adimage banner ad
image banner ad

HKMH - Muddo Gashe

Situé à , Kenya

ICAO - , IATA -

Données fournies par Airmate  

Information générale

Coordonnées: N0°45'50" E39°9'3"
Élévation : 865 feet MSL.
 
Voir autres Aéroports à North-Eastern Province

Données opérationnelles

Special qualification required
Heure actuelle UTC:
Heure actuelle locale:
Météo à : - ( 0 km )
METAR: KTIX 152147Z 14010KT 7SM SCT100 32/24 A3004
Voir NOTAMs / SUP AIP / TFR affectant cet aéroport [VIEW]
Fréquences de communication: [VIEW]

Pistes:

Identifiant RWYQFULongueur (ft)Largeur (ft)SurfaceLDA (ft)
1500UNK
3300UNK

Coordonnées de l'aéroport

Adresse: Kenya

Vue satellite de HKMH